Time;durP1;ratioP1;P1;durP2;ratioP2;P2;SDS_P1;SDS_P2;PMS_P1;PMS_P2;Temp;Humidity;BMP_temperature;BMP_pressure;BME280_temperature;BME280_humidity;BME280_pressure;Samples;Min_cycle;Max_cycle;Signal;HPM_P1;HPM_P2
2023/01/31 00:02:12;;;;;;;;;;;15.40;57.60;;;;;;5096105;28;20396;-78
2023/01/31 00:04:38;;;;;;;;;;;15.40;57.60;;;;;;5078663;28;19917;-78
2023/01/31 00:07:03;;;;;;;;;;;15.40;57.70;;;;;;5077860;28;19909;-78
2023/01/31 00:09:29;;;;;;;;;;;15.40;57.70;;;;;;5095746;28;19919;-78
2023/01/31 00:11:58;;;;;;;;;;;15.40;57.70;;;;;;5113059;28;20459;-78
2023/01/31 00:14:24;;;;;;;;;;;15.40;57.70;;;;;;5096241;28;19919;-78
2023/01/31 00:16:51;;;;;;;;;;;15.40;57.70;;;;;;5112857;28;19908;-78
2023/01/31 00:19:16;;;;;;;;;;;15.40;57.70;;;;;;5112731;28;20352;-78
2023/01/31 00:21:49;;;;;;;;;;;15.30;57.60;;;;;;5078395;28;19919;-78
2023/01/31 00:24:15;;;;;;;;;;;15.40;57.70;;;;;;5078124;28;19919;-78
2023/01/31 00:26:40;;;;;;;;;;;15.30;57.70;;;;;;5079239;28;19908;-78
2023/01/31 00:29:06;;;;;;;;;;;15.30;57.70;;;;;;5112700;28;20017;-78
2023/01/31 00:31:38;;;;;;;;;;;15.30;57.70;;;;;;5113330;28;19908;-78
2023/01/31 00:34:03;;;;;;;;;;;15.30;57.70;;;;;;5112623;28;19933;-77
2023/01/31 00:36:30;;;;;;;;;;;15.30;57.80;;;;;;5096063;28;20014;-77
2023/01/31 00:38:57;;;;;;;;;;;15.30;57.70;;;;;;5111722;28;20189;-77
2023/01/31 00:41:25;;;;;;;;;;;15.30;57.70;;;;;;5110216;28;19909;-77
2023/01/31 00:43:50;;;;;;;;;;;15.30;57.70;;;;;;5111692;28;20281;-77
2023/01/31 00:46:16;;;;;;;;;;;15.30;57.80;;;;;;5112750;28;19919;-77
2023/01/31 00:48:41;;;;;;;;;;;15.30;57.70;;;;;;5099183;28;19919;-78
2023/01/31 00:51:07;;;;;;;;;;;15.30;57.80;;;;;;5115828;28;19908;-77
2023/01/31 00:53:33;;;;;;;;;;;15.30;57.80;;;;;;5115024;28;19920;-77
2023/01/31 00:56:09;;;;;;;;;;;15.20;57.70;;;;;;5098537;28;20310;-77
2023/01/31 00:58:38;;;;;;;;;;;15.20;57.80;;;;;;5098947;28;19908;-77
2023/01/31 01:01:14;;;;;;;;;;;15.30;58.20;;;;;;5116042;28;20203;-77
2023/01/31 01:03:52;;;;;;;;;;;15.30;57.80;;;;;;5100500;28;19973;-77
2023/01/31 01:06:18;;;;;;;;;;;15.20;57.80;;;;;;5083201;28;19951;-77
2023/01/31 01:08:47;;;;;;;;;;;15.20;57.80;;;;;;5115813;28;19908;-77
2023/01/31 01:11:14;;;;;;;;;;;15.20;57.80;;;;;;5098181;28;19916;-77
2023/01/31 01:13:42;;;;;;;;;;;15.20;57.80;;;;;;5114850;28;19951;-77
2023/01/31 01:16:09;;;;;;;;;;;15.20;57.80;;;;;;5113997;28;20393;-77
2023/01/31 01:18:38;;;;;;;;;;;15.20;57.80;;;;;;5081424;28;19908;-77
2023/01/31 01:21:12;;;;;;;;;;;15.20;57.80;;;;;;5099708;28;19912;-77
2023/01/31 01:23:39;;;;;;;;;;;15.20;57.80;;;;;;5117654;28;19920;-79
2023/01/31 01:26:05;;;;;;;;;;;15.20;57.80;;;;;;5120299;28;19909;-79
2023/01/31 01:28:34;;;;;;;;;;;15.20;57.80;;;;;;5086578;28;19908;-79
2023/01/31 01:31:09;;;;;;;;;;;15.20;57.80;;;;;;5119664;28;19908;-79
2023/01/31 01:33:35;;;;;;;;;;;15.20;57.90;;;;;;5120189;28;20348;-79
2023/01/31 01:36:02;;;;;;;;;;;15.20;57.80;;;;;;5119889;28;19947;-79
2023/01/31 01:38:27;;;;;;;;;;;15.20;57.80;;;;;;5083796;28;19916;-79
2023/01/31 01:40:54;;;;;;;;;;;15.20;57.80;;;;;;5118512;28;19912;-79
2023/01/31 01:43:20;;;;;;;;;;;15.20;57.80;;;;;;5117133;28;19918;-79
2023/01/31 01:45:49;;;;;;;;;;;15.10;57.80;;;;;;5107228;28;19995;-80
2023/01/31 01:48:16;;;;;;;;;;;15.10;57.80;;;;;;5116699;28;20158;-80
2023/01/31 01:50:45;;;;;;;;;;;15.10;57.70;;;;;;5100060;28;19908;-80
2023/01/31 01:53:10;;;;;;;;;;;15.20;57.80;;;;;;5115899;28;19908;-80
2023/01/31 01:55:41;;;;;;;;;;;15.10;57.80;;;;;;5099144;28;19923;-79
2023/01/31 01:58:13;;;;;;;;;;;15.10;57.80;;;;;;5099480;28;20306;-79
2023/01/31 02:00:44;;;;;;;;;;;15.10;57.80;;;;;;5100362;28;19939;-79
2023/01/31 02:03:09;;;;;;;;;;;15.10;57.80;;;;;;5101301;28;19919;-79
2023/01/31 02:05:38;;;;;;;;;;;15.10;57.80;;;;;;5118815;28;19907;-79
2023/01/31 02:08:04;;;;;;;;;;;15.10;57.80;;;;;;5084861;28;19908;-79
2023/01/31 02:10:50;;;;;;;;;;;15.10;57.80;;;;;;5102431;28;19915;-79
2023/01/31 02:13:17;;;;;;;;;;;15.10;57.80;;;;;;5074619;28;19919;-79
2023/01/31 02:15:43;;;;;;;;;;;15.10;57.80;;;;;;5117410;28;19923;-79
2023/01/31 02:18:08;;;;;;;;;;;15.10;57.90;;;;;;5117814;28;20216;-79
2023/01/31 02:20:56;;;;;;;;;;;15.10;57.90;;;;;;5117095;28;19920;-79
2023/01/31 02:23:30;;;;;;;;;;;15.10;57.90;;;;;;5100975;28;19940;-79
2023/01/31 02:26:19;;;;;;;;;;;15.10;57.90;;;;;;5083803;28;19908;-79
2023/01/31 02:29:03;;;;;;;;;;;15.00;57.90;;;;;;5117379;28;19968;-79
2023/01/31 02:31:38;;;;;;;;;;;15.10;57.90;;;;;;5101946;28;19918;-79
2023/01/31 02:34:06;;;;;;;;;;;15.10;57.90;;;;;;5084053;28;19996;-79
2023/01/31 02:36:41;;;;;;;;;;;15.00;57.90;;;;;;5083797;28;19912;-79
2023/01/31 02:39:10;;;;;;;;;;;15.00;57.90;;;;;;5083819;28;19916;-79
2023/01/31 02:41:55;;;;;;;;;;;15.00;57.90;;;;;;5083437;28;19908;-80
2023/01/31 02:47:34;;;;;;;;;;;15.00;57.90;;;;;;5101293;28;20268;-80
2023/01/31 02:50:11;;;;;;;;;;;15.00;57.90;;;;;;5116732;28;19951;-80
2023/01/31 02:52:37;;;;;;;;;;;15.00;57.90;;;;;;5079748;28;19909;-79
2023/01/31 02:57:54;;;;;;;;;;;15.00;58.00;;;;;;5080960;28;19915;-79
2023/01/31 03:00:21;;;;;;;;;;;15.00;58.00;;;;;;5063546;28;19908;-79
2023/01/31 03:02:46;;;;;;;;;;;15.00;58.00;;;;;;5063715;28;20269;-79
2023/01/31 03:05:16;;;;;;;;;;;15.00;58.00;;;;;;5062299;28;19908;-79
2023/01/31 03:07:54;;;;;;;;;;;15.00;58.40;;;;;;5063026;28;20062;-79
2023/01/31 03:10:27;;;;;;;;;;;15.00;58.00;;;;;;5062590;28;19908;-79
2023/01/31 03:13:11;;;;;;;;;;;14.90;58.00;;;;;;5062700;28;19916;-80
2023/01/31 03:18:32;;;;;;;;;;;14.90;58.00;;;;;;5079949;28;19919;-80
2023/01/31 03:21:03;;;;;;;;;;;14.90;58.00;;;;;;5062273;28;19971;-80
2023/01/31 03:23:30;;;;;;;;;;;15.00;58.00;;;;;;5061857;28;19959;-80
2023/01/31 03:26:00;;;;;;;;;;;14.90;58.00;;;;;;5063441;28;19908;-80
2023/01/31 03:28:31;;;;;;;;;;;14.90;58.00;;;;;;5063789;28;19915;-79
2023/01/31 03:31:12;;;;;;;;;;;14.90;58.40;;;;;;5064119;28;19916;-79
2023/01/31 03:33:39;;;;;;;;;;;14.90;58.00;;;;;;5062611;28;20015;-79
2023/01/31 03:36:11;;;;;;;;;;;14.90;58.00;;;;;;5080652;28;19948;-79
2023/01/31 03:38:45;;;;;;;;;;;14.90;58.00;;;;;;5062623;28;19909;-79
2023/01/31 03:41:21;;;;;;;;;;;14.90;58.00;;;;;;5060971;28;19908;-79
2023/01/31 03:44:05;;;;;;;;;;;14.90;58.00;;;;;;5061690;28;19920;-79
2023/01/31 03:46:37;;;;;;;;;;;14.90;58.00;;;;;;5061097;28;20011;-79
2023/01/31 03:49:07;;;;;;;;;;;14.90;58.00;;;;;;5061756;28;19908;-79
2023/01/31 03:51:35;;;;;;;;;;;14.90;58.00;;;;;;5061156;28;19909;-79
2023/01/31 03:54:06;;;;;;;;;;;14.90;58.00;;;;;;5061377;28;19920;-79
2023/01/31 03:56:32;;;;;;;;;;;14.90;58.00;;;;;;5077245;28;19913;-79
2023/01/31 03:59:02;;;;;;;;;;;14.80;58.00;;;;;;5060025;28;19965;-79
2023/01/31 04:01:31;;;;;;;;;;;14.90;58.00;;;;;;5077010;28;20003;-79
2023/01/31 04:04:02;;;;;;;;;;;14.90;58.00;;;;;;5062826;28;20007;-79
2023/01/31 04:06:28;;;;;;;;;;;14.90;58.00;;;;;;5061815;28;19994;-79
2023/01/31 04:08:56;;;;;;;;;;;14.90;58.00;;;;;;5080950;28;20260;-79
2023/01/31 04:11:23;;;;;;;;;;;14.90;58.00;;;;;;5062364;28;19919;-79
2023/01/31 04:13:50;;;;;;;;;;;14.80;57.90;;;;;;5062017;28;19908;-79
2023/01/31 04:16:16;;;;;;;;;;;14.80;58.00;;;;;;5063212;28;19922;-79
2023/01/31 04:18:41;;;;;;;;;;;14.80;58.00;;;;;;5079861;28;19928;-79
2023/01/31 04:21:07;;;;;;;;;;;14.80;58.00;;;;;;5067013;28;19955;-79
2023/01/31 04:23:34;;;;;;;;;;;14.80;58.00;;;;;;5067095;28;19966;-79
2023/01/31 04:25:59;;;;;;;;;;;14.80;58.00;;;;;;5082629;28;19920;-79
2023/01/31 04:28:25;;;;;;;;;;;14.80;58.00;;;;;;5081575;28;19974;-79
2023/01/31 04:30:52;;;;;;;;;;;14.80;58.00;;;;;;5064118;28;19909;-79
2023/01/31 04:33:17;;;;;;;;;;;14.80;58.00;;;;;;5063876;28;20273;-79
2023/01/31 04:35:43;;;;;;;;;;;14.80;58.00;;;;;;5065409;28;19916;-79
2023/01/31 04:38:08;;;;;;;;;;;14.80;58.10;;;;;;5066943;28;19919;-79
2023/01/31 04:40:47;;;;;;;;;;;14.80;58.10;;;;;;5065539;28;19928;-79
2023/01/31 04:43:13;;;;;;;;;;;14.80;58.10;;;;;;5063585;28;19970;-79
2023/01/31 04:45:42;;;;;;;;;;;14.70;58.00;;;;;;5062181;28;20475;-79
2023/01/31 04:48:10;;;;;;;;;;;14.70;58.00;;;;;;5066361;28;19908;-79
2023/01/31 04:50:56;;;;;;;;;;;14.70;58.00;;;;;;5067441;28;19909;-79
2023/01/31 04:53:21;;;;;;;;;;;14.70;58.00;;;;;;5065614;28;19916;-79
2023/01/31 04:55:47;;;;;;;;;;;14.70;58.10;;;;;;5067218;28;19923;-79
2023/01/31 04:58:13;;;;;;;;;;;14.70;58.00;;;;;;5066539;28;19916;-79
2023/01/31 05:00:43;;;;;;;;;;;14.70;58.00;;;;;;5084836;28;19909;-79
2023/01/31 05:03:09;;;;;;;;;;;14.70;58.10;;;;;;5082192;28;19930;-79
2023/01/31 05:05:35;;;;;;;;;;;14.70;58.10;;;;;;5062994;28;19916;-79
2023/01/31 05:08:00;;;;;;;;;;;14.70;58.10;;;;;;5061906;28;19909;-79
2023/01/31 05:10:26;;;;;;;;;;;14.70;58.10;;;;;;5062354;28;19908;-79
2023/01/31 05:12:54;;;;;;;;;;;14.70;58.10;;;;;;5061802;28;19909;-79
2023/01/31 05:15:23;;;;;;;;;;;14.70;58.10;;;;;;5059328;28;19912;-79
2023/01/31 05:17:52;;;;;;;;;;;14.70;58.10;;;;;;5060823;28;20082;-79
2023/01/31 05:20:18;;;;;;;;;;;14.70;58.10;;;;;;5061824;28;19909;-79
2023/01/31 05:22:50;;;;;;;;;;;14.70;58.20;;;;;;5063091;28;19909;-79
2023/01/31 05:25:16;;;;;;;;;;;14.60;58.10;;;;;;5063711;28;19913;-79
2023/01/31 05:27:43;;;;;;;;;;;14.60;58.10;;;;;;5062685;28;20150;-79
2023/01/31 05:30:09;;;;;;;;;;;14.60;58.10;;;;;;5061494;28;19919;-79
2023/01/31 05:32:35;;;;;;;;;;;14.60;58.10;;;;;;5059398;28;20002;-79
2023/01/31 05:35:01;;;;;;;;;;;14.60;58.10;;;;;;5060419;28;20266;-79
2023/01/31 05:37:26;;;;;;;;;;;14.60;58.20;;;;;;5074545;28;19908;-79
2023/01/31 05:39:52;;;;;;;;;;;14.60;58.20;;;;;;5075854;28;19998;-79
2023/01/31 05:42:18;;;;;;;;;;;14.60;58.20;;;;;;5055636;28;19908;-79
2023/01/31 05:44:46;;;;;;;;;;;14.60;58.30;;;;;;5056325;28;20190;-79
2023/01/31 05:47:12;;;;;;;;;;;14.60;58.20;;;;;;5073553;28;19939;-79
2023/01/31 05:49:40;;;;;;;;;;;14.60;58.20;;;;;;5056226;28;19908;-79
2023/01/31 05:52:06;;;;;;;;;;;14.60;58.20;;;;;;5074623;28;20344;-79
2023/01/31 05:54:33;;;;;;;;;;;14.60;58.30;;;;;;5055403;28;19908;-79
2023/01/31 05:56:58;;;;;;;;;;;14.60;58.40;;;;;;5074545;28;19912;-79
2023/01/31 05:59:25;;;;;;;;;;;14.60;58.30;;;;;;5057917;28;19912;-79
2023/01/31 06:01:51;;;;;;;;;;;14.60;58.40;;;;;;5075522;28;19909;-79
2023/01/31 06:04:16;;;;;;;;;;;14.60;58.40;;;;;;5057079;28;19915;-79
2023/01/31 06:06:43;;;;;;;;;;;14.50;58.30;;;;;;5056138;28;19919;-79
2023/01/31 06:09:10;;;;;;;;;;;14.60;58.30;;;;;;5056450;28;19916;-79
2023/01/31 06:11:36;;;;;;;;;;;14.60;58.30;;;;;;5055857;28;19970;-79
2023/01/31 06:14:02;;;;;;;;;;;14.60;58.30;;;;;;5057343;28;19916;-79
2023/01/31 06:16:27;;;;;;;;;;;14.50;58.30;;;;;;5055591;28;20228;-79
2023/01/31 06:18:54;;;;;;;;;;;14.50;58.30;;;;;;5055474;28;20026;-79
2023/01/31 06:21:22;;;;;;;;;;;14.50;58.30;;;;;;5056871;28;19909;-79
2023/01/31 06:23:48;;;;;;;;;;;14.50;58.30;;;;;;5055642;28;20163;-79
2023/01/31 06:26:13;;;;;;;;;;;14.50;58.30;;;;;;5053209;28;19915;-79
2023/01/31 06:28:39;;;;;;;;;;;14.50;58.30;;;;;;5070327;28;19909;-79
2023/01/31 06:31:05;;;;;;;;;;;14.50;58.30;;;;;;5055153;28;19948;-79
2023/01/31 06:33:31;;;;;;;;;;;14.50;58.30;;;;;;5054933;28;20249;-79
2023/01/31 06:36:00;;;;;;;;;;;14.50;58.30;;;;;;5055450;28;19981;-79
2023/01/31 06:38:27;;;;;;;;;;;14.50;58.30;;;;;;5053680;28;19909;-79
2023/01/31 06:40:53;;;;;;;;;;;14.50;58.30;;;;;;5070902;28;19938;-79
2023/01/31 06:43:18;;;;;;;;;;;14.50;58.30;;;;;;5053313;28;20266;-79
2023/01/31 06:45:44;;;;;;;;;;;14.50;58.30;;;;;;5050992;28;20196;-80
2023/01/31 06:48:10;;;;;;;;;;;14.50;58.40;;;;;;5051607;28;19917;-80
2023/01/31 06:50:36;;;;;;;;;;;14.50;58.40;;;;;;5051122;28;19918;-80
2023/01/31 06:53:01;;;;;;;;;;;14.50;58.40;;;;;;5069707;28;20015;-80
2023/01/31 06:55:27;;;;;;;;;;;14.50;58.40;;;;;;5052894;28;20077;-80
2023/01/31 06:57:54;;;;;;;;;;;14.50;58.50;;;;;;5051280;28;19952;-80
2023/01/31 07:00:20;;;;;;;;;;;14.50;58.50;;;;;;5049063;28;20467;-80
2023/01/31 07:02:46;;;;;;;;;;;14.50;58.50;;;;;;5067761;28;19944;-80
2023/01/31 07:05:11;;;;;;;;;;;14.50;58.50;;;;;;5048550;28;19974;-80
2023/01/31 07:07:40;;;;;;;;;;;14.50;58.60;;;;;;5068674;28;19936;-80
2023/01/31 07:10:06;;;;;;;;;;;14.50;58.60;;;;;;5050161;28;20204;-80
2023/01/31 07:12:35;;;;;;;;;;;14.50;58.60;;;;;;5051340;28;19916;-80
2023/01/31 07:15:00;;;;;;;;;;;14.50;58.70;;;;;;5052130;28;19982;-80
2023/01/31 07:17:26;;;;;;;;;;;14.50;58.80;;;;;;5050939;28;20201;-80
2023/01/31 07:19:52;;;;;;;;;;;14.50;58.70;;;;;;5051476;28;20231;-80
2023/01/31 07:22:17;;;;;;;;;;;14.50;58.60;;;;;;5050931;28;19958;-80
2023/01/31 07:24:43;;;;;;;;;;;14.50;59.10;;;;;;5053870;28;19946;-80
2023/01/31 07:27:14;;;;;;;;;;;14.50;58.60;;;;;;5051572;28;20014;-80
2023/01/31 07:29:42;;;;;;;;;;;14.60;58.60;;;;;;5051138;28;19958;-80
2023/01/31 07:32:08;;;;;;;;;;;14.60;58.60;;;;;;5067978;28;20085;-80
2023/01/31 07:34:34;;;;;;;;;;;14.60;58.50;;;;;;5050138;28;20170;-80
2023/01/31 07:37:00;;;;;;;;;;;14.60;58.50;;;;;;5049857;28;20089;-80
2023/01/31 07:39:28;;;;;;;;;;;14.60;58.40;;;;;;5048591;28;20148;-80
2023/01/31 07:41:54;;;;;;;;;;;14.60;58.30;;;;;;5049493;28;20144;-80
2023/01/31 07:44:19;;;;;;;;;;;14.70;58.30;;;;;;5051162;28;19994;-80
2023/01/31 07:46:49;;;;;;;;;;;14.60;58.20;;;;;;5052200;28;20029;-80
2023/01/31 07:49:15;;;;;;;;;;;14.60;58.20;;;;;;5050911;28;20013;-80
2023/01/31 07:51:41;;;;;;;;;;;14.60;58.20;;;;;;5049147;28;19909;-80
2023/01/31 07:54:09;;;;;;;;;;;14.60;58.30;;;;;;5050095;28;19908;-80
2023/01/31 07:56:38;;;;;;;;;;;14.60;58.20;;;;;;5053357;28;19978;-80
2023/01/31 07:59:03;;;;;;;;;;;14.60;58.20;;;;;;5054685;28;20081;-80
2023/01/31 08:04:14;;;;;;;;;;;14.60;58.20;;;;;;5070906;28;20343;-80
2023/01/31 08:06:41;;;;;;;;;;;14.60;58.20;;;;;;5053926;28;19940;-80
2023/01/31 08:09:07;;;;;;;;;;;14.60;58.10;;;;;;5052557;28;20018;-80
2023/01/31 08:11:32;;;;;;;;;;;14.60;58.10;;;;;;5052490;28;19919;-80
2023/01/31 08:13:58;;;;;;;;;;;14.60;58.10;;;;;;5051580;28;19908;-79
2023/01/31 08:16:23;;;;;;;;;;;14.60;58.10;;;;;;5070208;28;20339;-79
2023/01/31 08:18:50;;;;;;;;;;;14.60;58.10;;;;;;5050506;28;19908;-79
2023/01/31 08:21:16;;;;;;;;;;;14.60;58.00;;;;;;5052502;28;20068;-79
2023/01/31 08:23:44;;;;;;;;;;;14.60;58.00;;;;;;5070583;28;19909;-79
2023/01/31 08:26:11;;;;;;;;;;;14.70;58.00;;;;;;5055106;28;19975;-79
2023/01/31 08:28:40;;;;;;;;;;;14.60;58.10;;;;;;5070929;28;20006;-79
2023/01/31 08:31:11;;;;;;;;;;;14.60;58.00;;;;;;5056313;28;19908;-79
2023/01/31 08:33:37;;;;;;;;;;;14.60;58.00;;;;;;5060970;28;19921;-79
2023/01/31 08:36:16;;;;;;;;;;;14.60;58.00;;;;;;5058497;28;20362;-79
2023/01/31 08:38:41;;;;;;;;;;;14.60;58.00;;;;;;5055641;28;20156;-79
2023/01/31 08:41:07;;;;;;;;;;;14.60;58.10;;;;;;5053068;28;19915;-79
2023/01/31 08:43:33;;;;;;;;;;;14.60;58.00;;;;;;5069026;28;19970;-79
2023/01/31 08:46:03;;;;;;;;;;;14.60;58.00;;;;;;5051410;28;20316;-79
2023/01/31 08:48:38;;;;;;;;;;;14.60;58.00;;;;;;5069334;28;20245;-79
2023/01/31 08:51:06;;;;;;;;;;;14.60;58.00;;;;;;5058435;28;19908;-80
2023/01/31 08:53:36;;;;;;;;;;;14.60;58.00;;;;;;5063107;28;19912;-80
2023/01/31 08:56:04;;;;;;;;;;;14.60;58.00;;;;;;5066807;28;19912;-80
2023/01/31 08:58:36;;;;;;;;;;;14.60;58.10;;;;;;5063396;28;19925;-80
2023/01/31 09:01:12;;;;;;;;;;;14.60;58.00;;;;;;5060760;28;19940;-80
2023/01/31 09:03:38;;;;;;;;;;;14.60;58.10;;;;;;5058611;28;19909;-80
2023/01/31 09:06:10;;;;;;;;;;;14.60;58.10;;;;;;5058942;28;19917;-80
2023/01/31 09:08:36;;;;;;;;;;;14.60;58.20;;;;;;5075245;28;19923;-80
2023/01/31 09:11:04;;;;;;;;;;;14.60;58.30;;;;;;5048217;28;19969;-80
2023/01/31 09:13:30;;;;;;;;;;;14.60;58.30;;;;;;5050444;28;20083;-80
2023/01/31 09:16:02;;;;;;;;;;;14.60;58.40;;;;;;5050448;28;19916;-80
2023/01/31 09:18:28;;;;;;;;;;;14.70;58.40;;;;;;5054465;28;19920;-80
2023/01/31 09:20:53;;;;;;;;;;;14.60;58.30;;;;;;5057253;28;19908;-80
2023/01/31 09:23:20;;;;;;;;;;;14.70;58.30;;;;;;5059246;28;19913;-80
2023/01/31 09:25:56;;;;;;;;;;;14.70;58.30;;;;;;5060446;28;19981;-80
2023/01/31 09:28:22;;;;;;;;;;;14.70;58.20;;;;;;5058879;28;19978;-80
2023/01/31 09:30:48;;;;;;;;;;;14.70;58.10;;;;;;5074336;28;19944;-80
2023/01/31 09:33:18;;;;;;;;;;;14.70;58.10;;;;;;5078000;28;19913;-80
2023/01/31 09:35:54;;;;;;;;;;;14.70;58.00;;;;;;5059361;28;20191;-81
2023/01/31 09:38:19;;;;;;;;;;;14.70;58.00;;;;;;5060674;28;19908;-80
2023/01/31 09:40:48;;;;;;;;;;;14.70;58.00;;;;;;5058668;28;19909;-80
2023/01/31 09:43:15;;;;;;;;;;;14.70;58.10;;;;;;5060268;28;19920;-80
2023/01/31 09:45:43;;;;;;;;;;;14.70;58.10;;;;;;5076299;28;19916;-80
2023/01/31 09:48:12;;;;;;;;;;;14.70;58.10;;;;;;5077236;28;19927;-79
2023/01/31 09:50:44;;;;;;;;;;;14.70;58.10;;;;;;5060782;28;19909;-79
2023/01/31 09:53:12;;;;;;;;;;;14.70;58.10;;;;;;5058388;28;20046;-79
2023/01/31 09:55:46;;;;;;;;;;;14.70;58.10;;;;;;5058553;28;20061;-79
2023/01/31 09:58:19;;;;;;;;;;;14.70;58.10;;;;;;5059763;28;19916;-79
2023/01/31 10:00:54;;;;;;;;;;;14.70;58.00;;;;;;5071722;28;19919;-79
2023/01/31 10:03:30;;;;;;;;;;;14.70;58.10;;;;;;5058057;28;20007;-79
2023/01/31 10:06:22;;;;;;;;;;;14.70;58.10;;;;;;5059104;28;19919;-79
2023/01/31 10:08:56;;;;;;;;;;;14.70;58.00;;;;;;5044913;28;19908;-79
2023/01/31 10:11:41;;;;;;;;;;;14.70;58.00;;;;;;5059576;28;19916;-79
2023/01/31 10:14:10;;;;;;;;;;;14.70;57.90;;;;;;5056724;28;19969;-79
2023/01/31 10:16:43;;;;;;;;;;;14.70;58.20;;;;;;5056764;28;19939;-79
2023/01/31 10:19:15;;;;;;;;;;;14.70;57.80;;;;;;5058347;28;19909;-79
2023/01/31 10:21:44;;;;;;;;;;;14.70;57.90;;;;;;5058264;28;19920;-79
2023/01/31 10:24:10;;;;;;;;;;;14.70;57.90;;;;;;5055649;28;20135;-80
2023/01/31 10:26:38;;;;;;;;;;;14.70;57.90;;;;;;5059230;28;19967;-79
2023/01/31 10:29:09;;;;;;;;;;;14.70;57.90;;;;;;5055598;28;20116;-79
2023/01/31 10:31:54;;;;;;;;;;;14.70;57.90;;;;;;5056076;28;20116;-80
2023/01/31 10:34:38;;;;;;;;;;;14.70;58.00;;;;;;5055644;28;20271;-80
2023/01/31 10:37:07;;;;;;;;;;;14.70;58.00;;;;;;5069107;28;20083;-80
2023/01/31 10:39:34;;;;;;;;;;;14.70;58.00;;;;;;5052238;28;20182;-80
2023/01/31 10:42:19;;;;;;;;;;;14.70;58.00;;;;;;5053053;28;19995;-80
2023/01/31 10:44:52;;;;;;;;;;;14.70;57.90;;;;;;5055154;28;20168;-79
2023/01/31 10:47:18;;;;;;;;;;;14.70;58.00;;;;;;5072765;28;20292;-80
2023/01/31 10:49:45;;;;;;;;;;;14.70;58.10;;;;;;5075370;28;19915;-80
2023/01/31 10:52:15;;;;;;;;;;;14.70;58.10;;;;;;5057716;28;20006;-80
2023/01/31 10:55:01;;;;;;;;;;;14.70;58.20;;;;;;5057973;28;19931;-80
2023/01/31 10:57:27;;;;;;;;;;;14.70;58.30;;;;;;5057114;28;19908;-79
2023/01/31 10:59:52;;;;;;;;;;;14.70;58.40;;;;;;5058525;28;19935;-79
2023/01/31 11:02:31;;;;;;;;;;;14.70;58.40;;;;;;5075917;28;19934;-80
2023/01/31 11:04:59;;;;;;;;;;;14.70;58.40;;;;;;5056415;28;19908;-80
2023/01/31 11:07:27;;;;;;;;;;;14.70;58.40;;;;;;5056198;28;19916;-79
2023/01/31 11:09:57;;;;;;;;;;;14.70;58.40;;;;;;5056225;28;19916;-79
2023/01/31 11:12:38;;;;;;;;;;;14.70;58.40;;;;;;5058545;28;19917;-79
2023/01/31 11:15:13;;;;;;;;;;;14.70;58.50;;;;;;5058825;28;20031;-79
2023/01/31 11:17:43;;;;;;;;;;;14.70;58.60;;;;;;5060350;28;19974;-80
2023/01/31 11:20:38;;;;;;;;;;;14.60;58.50;;;;;;5077206;28;19999;-80
2023/01/31 11:23:05;;;;;;;;;;;14.60;58.50;;;;;;5044615;28;19963;-80
2023/01/31 11:25:32;;;;;;;;;;;14.70;58.50;;;;;;5057342;28;20007;-79
2023/01/31 11:28:00;;;;;;;;;;;14.70;58.50;;;;;;5056461;28;19913;-80
2023/01/31 11:30:29;;;;;;;;;;;14.60;58.40;;;;;;5058247;28;20003;-80
2023/01/31 11:32:54;;;;;;;;;;;14.60;58.40;;;;;;5059335;28;19909;-80
2023/01/31 11:35:22;;;;;;;;;;;14.60;58.40;;;;;;5058651;28;19921;-80
2023/01/31 11:38:11;;;;;;;;;;;14.60;58.40;;;;;;5076890;28;20566;-80
2023/01/31 11:40:38;;;;;;;;;;;14.60;58.50;;;;;;5063379;28;20285;-80
2023/01/31 11:43:14;;;;;;;;;;;14.60;58.40;;;;;;5055893;28;19940;-80
2023/01/31 11:45:43;;;;;;;;;;;14.60;58.40;;;;;;5074894;28;20000;-80
2023/01/31 11:48:16;;;;;;;;;;;14.60;58.40;;;;;;5057638;28;19908;-80
2023/01/31 11:50:43;;;;;;;;;;;14.60;58.40;;;;;;5057651;28;19916;-79
2023/01/31 11:53:26;;;;;;;;;;;14.60;58.40;;;;;;5057582;28;19934;-79
2023/01/31 11:55:56;;;;;;;;;;;14.60;58.40;;;;;;5054898;28;19923;-80
2023/01/31 11:58:21;;;;;;;;;;;14.60;58.40;;;;;;5051813;28;19974;-80
2023/01/31 12:00:58;;;;;;;;;;;14.60;58.30;;;;;;5049434;28;19919;-80
2023/01/31 12:03:24;;;;;;;;;;;14.60;58.40;;;;;;5046405;28;19908;-80
2023/01/31 12:05:57;;;;;;;;;;;14.60;58.30;;;;;;5049054;28;19916;-80
2023/01/31 12:08:36;;;;;;;;;;;14.60;58.30;;;;;;5054774;28;19908;-80
2023/01/31 12:11:04;;;;;;;;;;;14.60;58.30;;;;;;5072223;28;20200;-79
2023/01/31 12:13:29;;;;;;;;;;;14.60;58.30;;;;;;5046480;28;20311;-79
2023/01/31 12:16:00;;;;;;;;;;;14.60;58.30;;;;;;5047788;28;19913;-80
2023/01/31 12:18:38;;;;;;;;;;;14.60;58.20;;;;;;5048745;28;19909;-79
2023/01/31 12:21:12;;;;;;;;;;;14.60;58.20;;;;;;5049145;28;19909;-79
2023/01/31 12:23:43;;;;;;;;;;;14.60;58.20;;;;;;5045476;28;19993;-80
2023/01/31 12:26:12;;;;;;;;;;;14.60;58.20;;;;;;5048900;28;19915;-80
2023/01/31 12:28:48;;;;;;;;;;;14.60;58.20;;;;;;5049349;28;19998;-80
2023/01/31 12:31:14;;;;;;;;;;;14.50;58.20;;;;;;5048771;28;19908;-80
2023/01/31 12:33:48;;;;;;;;;;;14.50;58.20;;;;;;5049582;28;19931;-80
2023/01/31 12:36:25;;;;;;;;;;;14.50;58.20;;;;;;5050577;28;20015;-80
2023/01/31 12:39:03;;;;;;;;;;;14.50;58.30;;;;;;5071654;28;19916;-80
2023/01/31 12:41:35;;;;;;;;;;;14.50;58.30;;;;;;5071500;28;20376;-79
2023/01/31 12:44:19;;;;;;;;;;;14.50;58.20;;;;;;5056012;28;19909;-79
2023/01/31 12:46:52;;;;;;;;;;;14.50;58.20;;;;;;5049196;28;20285;-79
2023/01/31 12:49:36;;;;;;;;;;;14.50;58.20;;;;;;5050913;28;20296;-79
2023/01/31 12:52:15;;;;;;;;;;;14.50;58.20;;;;;;5052368;28;20454;-79
2023/01/31 12:54:43;;;;;;;;;;;14.50;58.20;;;;;;5069777;28;19930;-80
2023/01/31 12:57:41;;;;;;;;;;;14.50;58.20;;;;;;5050921;28;20012;-80
2023/01/31 13:00:25;;;;;;;;;;;14.50;58.20;;;;;;5023609;28;19935;-80
2023/01/31 13:02:54;;;;;;;;;;;14.50;58.20;;;;;;5071287;28;19917;-80
2023/01/31 13:05:27;;;;;;;;;;;14.50;58.20;;;;;;5053139;28;19908;-80
2023/01/31 13:08:16;;;;;;;;;;;14.50;58.20;;;;;;5049405;28;19958;-80
2023/01/31 13:10:51;;;;;;;;;;;14.50;58.20;;;;;;5046788;28;19908;-80
2023/01/31 13:13:25;;;;;;;;;;;14.50;58.20;;;;;;5045332;28;19923;-80
2023/01/31 13:15:53;;;;;;;;;;;14.50;58.20;;;;;;5046340;28;20259;-80
2023/01/31 13:18:20;;;;;;;;;;;14.50;58.20;;;;;;5065342;28;19915;-80
2023/01/31 13:20:47;;;;;;;;;;;14.40;58.20;;;;;;5047902;28;19919;-80
2023/01/31 13:23:21;;;;;;;;;;;14.50;58.30;;;;;;5046875;28;19915;-80
2023/01/31 13:25:50;;;;;;;;;;;14.50;58.30;;;;;;5047243;28;19939;-80
2023/01/31 13:28:21;;;;;;;;;;;14.50;58.30;;;;;;5048517;28;19924;-80
2023/01/31 13:30:47;;;;;;;;;;;14.40;58.20;;;;;;5047536;28;20061;-80
2023/01/31 13:33:32;;;;;;;;;;;14.50;58.30;;;;;;5048689;28;19908;-80
2023/01/31 13:36:16;;;;;;;;;;;14.40;58.20;;;;;;5065599;28;19923;-80
2023/01/31 13:38:43;;;;;;;;;;;14.40;58.30;;;;;;5051257;28;20335;-80
2023/01/31 13:41:17;;;;;;;;;;;14.50;58.30;;;;;;5068377;28;19935;-80
2023/01/31 13:43:42;;;;;;;;;;;14.40;58.30;;;;;;5057334;28;19912;-80
2023/01/31 13:46:09;;;;;;;;;;;14.40;58.30;;;;;;5076854;28;19947;-79
2023/01/31 13:48:41;;;;;;;;;;;14.40;58.30;;;;;;5078347;28;19947;-79
2023/01/31 13:51:12;;;;;;;;;;;14.50;58.30;;;;;;5070907;28;20410;-79
2023/01/31 13:53:58;;;;;;;;;;;14.40;58.30;;;;;;5092175;28;19908;-79
2023/01/31 13:56:34;;;;;;;;;;;14.40;58.30;;;;;;5072101;28;19955;-81
2023/01/31 13:58:59;;;;;;;;;;;14.40;58.30;;;;;;5074503;28;19915;-81
2023/01/31 14:01:27;;;;;;;;;;;14.40;58.30;;;;;;5074824;28;20144;-80
2023/01/31 14:04:16;;;;;;;;;;;14.40;58.40;;;;;;5073652;28;20015;-80
2023/01/31 14:06:51;;;;;;;;;;;14.40;58.30;;;;;;5073970;28;19926;-80
2023/01/31 14:09:26;;;;;;;;;;;14.40;58.40;;;;;;5094061;28;20187;-80
2023/01/31 14:11:56;;;;;;;;;;;14.40;58.40;;;;;;5069298;28;19957;-80
2023/01/31 14:14:37;;;;;;;;;;;14.40;58.40;;;;;;5072817;28;20399;-80
2023/01/31 14:17:13;;;;;;;;;;;14.40;58.50;;;;;;5073957;28;19916;-80
2023/01/31 14:19:42;;;;;;;;;;;14.40;58.50;;;;;;5093649;28;20259;-80
2023/01/31 14:22:26;;;;;;;;;;;14.40;58.50;;;;;;5074907;28;19908;-80
2023/01/31 14:24:55;;;;;;;;;;;14.40;58.50;;;;;;5092811;28;19947;-80
2023/01/31 14:27:21;;;;;;;;;;;14.40;58.50;;;;;;5091377;28;19912;-80
2023/01/31 14:29:47;;;;;;;;;;;14.40;58.50;;;;;;5076268;28;19908;-80
2023/01/31 14:32:14;;;;;;;;;;;14.40;58.50;;;;;;5075653;28;20444;-80
2023/01/31 14:34:45;;;;;;;;;;;14.40;58.50;;;;;;5077782;28;19912;-81
2023/01/31 14:37:11;;;;;;;;;;;14.40;58.50;;;;;;5078630;28;19912;-80
2023/01/31 14:39:58;;;;;;;;;;;14.40;58.50;;;;;;5081752;28;20182;-79
2023/01/31 14:42:32;;;;;;;;;;;14.30;58.50;;;;;;5084606;28;19935;-79
2023/01/31 14:44:58;;;;;;;;;;;14.40;58.60;;;;;;5115187;28;19908;-79